Granville, Vermont
Current Conditions -  °F | °C
As of 6:15 PM on Saturday 25 Oct 2014 (Local Time) from K6B0 Reporting Station
Overcast Overcast  
Wind Chill: 13°   Ceiling: 7000
Heat Index: 13°   Visibility: 10mi
Dew Point:   Wind: 6mph
Humidity: 75%   Direction: 160°SSE
Pressure: 29.54"   Gusts: NA
Location:  43.98°N, 72.85°W
Report Text: K6B0 252215Z AUTO 16005KT 10SM SCT050 OVC070 13/09 A2954 RMK AO2 T01280085
Loading
Personal Weather Stations






























Interactive Weather Map
Tropical Storm Tracking
New forecast layout! Learn more

10-Day Weather Forecast

Advertisements
Track Severe Weather on mobile